Newton Hook, New York
Current Conditions -  °F | °C
As of 12:11 PM on Thursday 27 Nov 2014 (Local Time) from KPSF Reporting Station
Overcast Overcast  
Wind Chill: 19°   Ceiling: 1000
Heat Index: 27°   Visibility: 10mi
Dew Point: 23°   Wind: 7mph
Humidity: 85%   Direction: 320°NW
Pressure: 29.93"   Gusts: NA
Location:  42.3826°N, 73.7611°W
Report Text: KPSF 271711Z AUTO 32006KT 10SM OVC010 M03/M05 A2993 RMK AO2 T10281050 $
Loading
Personal Weather Stations






























Interactive Weather Map New forecast layout! Learn more

10-Day Weather Forecast

Advertisements
Track Severe Weather on mobile